This is the latest recevied weather packets stored in our database for station/object E22ZMG-1. If no packets are shown the sender has not sent any weather packets the latest 10 day(s).
| Time | Temp. | Humidity | Pressure | Rain* | Wind** | Luminosity | Snow |
|---|---|---|---|---|---|---|---|
| 1777920714 | 32.78° C | 55% | 977 hPa | - | - | 0 W/m² | - |
| 1777920089 | 32.22° C | 56% | 977 hPa | - | - | 0 W/m² | - |
| 1777919464 | 33.33° C | 54% | 977 hPa | - | - | 0 W/m² | - |
| 1777918839 | 32.22° C | 56% | 977 hPa | - | - | 0 W/m² | - |
| 1777918214 | 31.67° C | 57% | 977 hPa | - | - | 0 W/m² | - |
| 1777917588 | 33.33° C | 56% | 977 hPa | - | - | 0 W/m² | - |
| 1777916963 | 33.33° C | 57% | 977 hPa | - | - | 0 W/m² | - |
| 1777916338 | 32.78° C | 58% | 977 hPa | - | - | 0 W/m² | - |
| 1777915713 | 33.33° C | 56% | 977 hPa | - | - | 0 W/m² | - |
| 1777915088 | 33.33° C | 56% | 977 hPa | - | - | 0 W/m² | - |
| 1777914463 | 33.33° C | 57% | 977 hPa | - | - | 0 W/m² | - |
| 1777913837 | 33.33° C | 57% | 977 hPa | - | - | 0 W/m² | - |
| 1777913212 | 33.89° C | 56% | 977 hPa | - | - | 0 W/m² | - |
| 1777912588 | 33.89° C | 52% | 977 hPa | - | - | 0 W/m² | - |
| 1777911962 | 32.78° C | 53% | 977 hPa | - | - | 0 W/m² | - |
| 1777911336 | 34.44° C | 48% | 976 hPa | - | - | 0 W/m² | - |
| 1777910710 | 33.89° C | 44% | 976 hPa | - | - | 0 W/m² | - |
| 1777910084 | 34.44° C | 43% | 976 hPa | - | - | 0 W/m² | - |
| 1777909456 | 33.33° C | 45% | 976 hPa | - | - | 0 W/m² | - |
| 1777908831 | 33.33° C | 45% | 976 hPa | - | - | 0 W/m² | - |
| 1777908206 | 33.33° C | 45% | 976 hPa | - | - | 0 W/m² | - |
| 1777907580 | 32.22° C | 46% | 975 hPa | - | - | 0 W/m² | - |
| 1777906955 | 32.22° C | 47% | 975 hPa | - | - | 0 W/m² | - |
| 1777906330 | 31.67° C | 46% | 974 hPa | - | - | 0 W/m² | - |
| 1777905704 | 31.67° C | 46% | 974 hPa | - | - | 0 W/m² | - |
* Rain since midnight (hover to see other rain measurements)
** Current wind speed in m/s (hover to see current wind gust speed)